sensor_id;sensor_type;location;lat;lon;timestamp;P1;durP1;ratioP1;P2;durP2;ratioP2
62338;SDS011;48368;53.406;6.214;2023-08-31T00:02:21;2.00;;;0.60;;
62338;SDS011;48368;53.406;6.214;2023-08-31T00:04:46;2.55;;;0.70;;
62338;SDS011;48368;53.406;6.214;2023-08-31T00:07:12;5.35;;;0.90;;
62338;SDS011;48368;53.406;6.214;2023-08-31T00:09:38;3.08;;;0.82;;
62338;SDS011;48368;53.406;6.214;2023-08-31T00:12:04;4.63;;;0.77;;
62338;SDS011;48368;53.406;6.214;2023-08-31T00:14:30;1.98;;;0.90;;
62338;SDS011;48368;53.406;6.214;2023-08-31T00:16:57;2.53;;;0.90;;
62338;SDS011;48368;53.406;6.214;2023-08-31T00:19:23;4.68;;;0.80;;
62338;SDS011;48368;53.406;6.214;2023-08-31T00:21:49;4.18;;;1.05;;
62338;SDS011;48368;53.406;6.214;2023-08-31T00:24:15;5.85;;;0.82;;
62338;SDS011;48368;53.406;6.214;2023-08-31T00:26:41;4.15;;;0.90;;
62338;SDS011;48368;53.406;6.214;2023-08-31T00:29:10;1.80;;;0.63;;
62338;SDS011;48368;53.406;6.214;2023-08-31T00:31:36;2.53;;;0.90;;
62338;SDS011;48368;53.406;6.214;2023-08-31T00:34:02;2.55;;;0.80;;
62338;SDS011;48368;53.406;6.214;2023-08-31T00:36:32;3.30;;;0.90;;
62338;SDS011;48368;53.406;6.214;2023-08-31T00:38:58;3.45;;;1.10;;
62338;SDS011;48368;53.406;6.214;2023-08-31T00:41:30;3.47;;;0.80;;
62338;SDS011;48368;53.406;6.214;2023-08-31T00:43:56;3.08;;;0.70;;
62338;SDS011;48368;53.406;6.214;2023-08-31T00:46:22;2.55;;;0.73;;
62338;SDS011;48368;53.406;6.214;2023-08-31T00:48:47;5.47;;;0.98;;
62338;SDS011;48368;53.406;6.214;2023-08-31T00:51:13;3.13;;;0.75;;
62338;SDS011;48368;53.406;6.214;2023-08-31T00:53:39;4.65;;;1.00;;
62338;SDS011;48368;53.406;6.214;2023-08-31T00:56:06;5.13;;;1.08;;
62338;SDS011;48368;53.406;6.214;2023-08-31T00:58:32;1.88;;;0.70;;
62338;SDS011;48368;53.406;6.214;2023-08-31T01:01:04;2.45;;;1.10;;
62338;SDS011;48368;53.406;6.214;2023-08-31T01:06:35;6.75;;;1.20;;
62338;SDS011;48368;53.406;6.214;2023-08-31T01:09:09;6.82;;;1.20;;
62338;SDS011;48368;53.406;6.214;2023-08-31T01:14:22;3.83;;;1.30;;
62338;SDS011;48368;53.406;6.214;2023-08-31T01:16:49;2.47;;;1.10;;
62338;SDS011;48368;53.406;6.214;2023-08-31T01:22:14;5.95;;;1.20;;
62338;SDS011;48368;53.406;6.214;2023-08-31T01:24:46;5.72;;;1.38;;
62338;SDS011;48368;53.406;6.214;2023-08-31T01:27:12;5.25;;;0.93;;
62338;SDS011;48368;53.406;6.214;2023-08-31T01:29:38;2.95;;;1.08;;
62338;SDS011;48368;53.406;6.214;2023-08-31T01:32:05;3.63;;;1.00;;
62338;SDS011;48368;53.406;6.214;2023-08-31T01:34:32;4.68;;;0.90;;
62338;SDS011;48368;53.406;6.214;2023-08-31T01:36:59;6.55;;;1.20;;
62338;SDS011;48368;53.406;6.214;2023-08-31T01:39:37;4.47;;;0.82;;
62338;SDS011;48368;53.406;6.214;2023-08-31T01:42:06;3.33;;;0.90;;
62338;SDS011;48368;53.406;6.214;2023-08-31T01:44:34;4.07;;;1.00;;
62338;SDS011;48368;53.406;6.214;2023-08-31T01:47:06;3.70;;;1.05;;
62338;SDS011;48368;53.406;6.214;2023-08-31T01:49:35;3.15;;;1.20;;
62338;SDS011;48368;53.406;6.214;2023-08-31T01:52:02;4.53;;;1.30;;
62338;SDS011;48368;53.406;6.214;2023-08-31T01:54:28;4.80;;;0.80;;
62338;SDS011;48368;53.406;6.214;2023-08-31T01:56:54;4.53;;;1.00;;
62338;SDS011;48368;53.406;6.214;2023-08-31T01:59:19;3.67;;;1.20;;
62338;SDS011;48368;53.406;6.214;2023-08-31T02:01:45;4.90;;;0.82;;
62338;SDS011;48368;53.406;6.214;2023-08-31T02:04:10;6.65;;;1.10;;
62338;SDS011;48368;53.406;6.214;2023-08-31T02:06:36;6.40;;;1.08;;
62338;SDS011;48368;53.406;6.214;2023-08-31T02:09:02;4.35;;;1.38;;
62338;SDS011;48368;53.406;6.214;2023-08-31T02:11:27;4.05;;;1.40;;
62338;SDS011;48368;53.406;6.214;2023-08-31T02:13:53;3.13;;;0.95;;
62338;SDS011;48368;53.406;6.214;2023-08-31T02:16:18;3.65;;;1.17;;
62338;SDS011;48368;53.406;6.214;2023-08-31T02:18:44;3.53;;;1.00;;
62338;SDS011;48368;53.406;6.214;2023-08-31T02:21:10;5.32;;;1.08;;
62338;SDS011;48368;53.406;6.214;2023-08-31T02:23:35;4.75;;;1.17;;
62338;SDS011;48368;53.406;6.214;2023-08-31T02:26:01;4.38;;;1.23;;
62338;SDS011;48368;53.406;6.214;2023-08-31T02:28:26;3.97;;;1.20;;
62338;SDS011;48368;53.406;6.214;2023-08-31T02:30:59;6.93;;;0.95;;
62338;SDS011;48368;53.406;6.214;2023-08-31T02:33:26;4.93;;;1.20;;
62338;SDS011;48368;53.406;6.214;2023-08-31T02:35:51;5.20;;;1.10;;
62338;SDS011;48368;53.406;6.214;2023-08-31T02:38:18;3.25;;;1.08;;
62338;SDS011;48368;53.406;6.214;2023-08-31T02:40:45;3.65;;;1.10;;
62338;SDS011;48368;53.406;6.214;2023-08-31T02:43:12;4.20;;;1.23;;
62338;SDS011;48368;53.406;6.214;2023-08-31T02:45:38;2.63;;;0.80;;
62338;SDS011;48368;53.406;6.214;2023-08-31T02:48:10;3.58;;;1.10;;
62338;SDS011;48368;53.406;6.214;2023-08-31T02:50:35;2.47;;;0.90;;
62338;SDS011;48368;53.406;6.214;2023-08-31T02:53:01;5.15;;;1.10;;
62338;SDS011;48368;53.406;6.214;2023-08-31T02:55:27;3.15;;;0.80;;
62338;SDS011;48368;53.406;6.214;2023-08-31T02:57:53;2.33;;;0.70;;
62338;SDS011;48368;53.406;6.214;2023-08-31T03:00:19;4.72;;;1.05;;
62338;SDS011;48368;53.406;6.214;2023-08-31T03:02:47;3.85;;;1.00;;
62338;SDS011;48368;53.406;6.214;2023-08-31T03:05:13;5.47;;;0.95;;
62338;SDS011;48368;53.406;6.214;2023-08-31T03:07:38;3.85;;;1.00;;
62338;SDS011;48368;53.406;6.214;2023-08-31T03:10:04;3.20;;;1.10;;
62338;SDS011;48368;53.406;6.214;2023-08-31T03:12:30;4.47;;;1.00;;
62338;SDS011;48368;53.406;6.214;2023-08-31T03:14:56;3.25;;;1.17;;
62338;SDS011;48368;53.406;6.214;2023-08-31T03:17:22;3.88;;;1.48;;
62338;SDS011;48368;53.406;6.214;2023-08-31T03:19:47;3.85;;;1.00;;
62338;SDS011;48368;53.406;6.214;2023-08-31T03:22:17;6.95;;;1.10;;
62338;SDS011;48368;53.406;6.214;2023-08-31T03:24:42;2.90;;;1.20;;
62338;SDS011;48368;53.406;6.214;2023-08-31T03:27:08;2.50;;;1.08;;
62338;SDS011;48368;53.406;6.214;2023-08-31T03:29:34;3.78;;;1.25;;
62338;SDS011;48368;53.406;6.214;2023-08-31T03:32:00;2.78;;;1.10;;
62338;SDS011;48368;53.406;6.214;2023-08-31T03:34:30;5.30;;;1.10;;
62338;SDS011;48368;53.406;6.214;2023-08-31T03:36:56;5.55;;;1.30;;
62338;SDS011;48368;53.406;6.214;2023-08-31T03:39:23;3.78;;;1.27;;
62338;SDS011;48368;53.406;6.214;2023-08-31T03:41:49;4.00;;;1.38;;
62338;SDS011;48368;53.406;6.214;2023-08-31T03:44:15;2.92;;;1.05;;
62338;SDS011;48368;53.406;6.214;2023-08-31T03:46:40;3.45;;;1.05;;
62338;SDS011;48368;53.406;6.214;2023-08-31T03:49:06;3.90;;;1.30;;
62338;SDS011;48368;53.406;6.214;2023-08-31T03:51:31;4.50;;;1.20;;
62338;SDS011;48368;53.406;6.214;2023-08-31T03:53:57;3.80;;;1.40;;
62338;SDS011;48368;53.406;6.214;2023-08-31T03:56:23;5.50;;;1.27;;
62338;SDS011;48368;53.406;6.214;2023-08-31T03:58:49;4.10;;;1.40;;
62338;SDS011;48368;53.406;6.214;2023-08-31T04:01:14;3.03;;;1.30;;
62338;SDS011;48368;53.406;6.214;2023-08-31T04:03:42;5.97;;;1.48;;
62338;SDS011;48368;53.406;6.214;2023-08-31T04:06:07;3.58;;;1.60;;
62338;SDS011;48368;53.406;6.214;2023-08-31T04:08:33;4.95;;;1.67;;
62338;SDS011;48368;53.406;6.214;2023-08-31T04:10:59;6.07;;;1.40;;
62338;SDS011;48368;53.406;6.214;2023-08-31T04:13:25;5.93;;;1.67;;
62338;SDS011;48368;53.406;6.214;2023-08-31T04:15:52;3.47;;;1.40;;
62338;SDS011;48368;53.406;6.214;2023-08-31T04:18:18;3.63;;;1.50;;
62338;SDS011;48368;53.406;6.214;2023-08-31T04:20:50;2.38;;;1.20;;
62338;SDS011;48368;53.406;6.214;2023-08-31T04:23:20;2.92;;;1.10;;
62338;SDS011;48368;53.406;6.214;2023-08-31T04:25:46;4.90;;;1.50;;
62338;SDS011;48368;53.406;6.214;2023-08-31T04:28:12;3.75;;;1.33;;
62338;SDS011;48368;53.406;6.214;2023-08-31T04:30:39;4.90;;;1.40;;
62338;SDS011;48368;53.406;6.214;2023-08-31T04:33:06;4.10;;;1.25;;
62338;SDS011;48368;53.406;6.214;2023-08-31T04:35:32;3.58;;;1.30;;
62338;SDS011;48368;53.406;6.214;2023-08-31T04:37:58;4.97;;;1.40;;
62338;SDS011;48368;53.406;6.214;2023-08-31T04:40:24;3.25;;;1.40;;
62338;SDS011;48368;53.406;6.214;2023-08-31T04:42:50;4.05;;;1.42;;
62338;SDS011;48368;53.406;6.214;2023-08-31T04:45:16;4.97;;;1.30;;
62338;SDS011;48368;53.406;6.214;2023-08-31T04:47:42;5.07;;;1.55;;
62338;SDS011;48368;53.406;6.214;2023-08-31T04:50:08;4.43;;;1.45;;
62338;SDS011;48368;53.406;6.214;2023-08-31T04:52:33;5.97;;;1.67;;
62338;SDS011;48368;53.406;6.214;2023-08-31T04:55:03;6.57;;;1.65;;
62338;SDS011;48368;53.406;6.214;2023-08-31T04:57:32;3.17;;;1.48;;
62338;SDS011;48368;53.406;6.214;2023-08-31T04:59:58;3.72;;;1.65;;
62338;SDS011;48368;53.406;6.214;2023-08-31T05:02:24;5.25;;;1.50;;
62338;SDS011;48368;53.406;6.214;2023-08-31T05:04:50;3.78;;;1.50;;
62338;SDS011;48368;53.406;6.214;2023-08-31T05:07:16;5.35;;;1.80;;
62338;SDS011;48368;53.406;6.214;2023-08-31T05:09:41;5.07;;;1.70;;
62338;SDS011;48368;53.406;6.214;2023-08-31T05:12:07;4.65;;;1.80;;
62338;SDS011;48368;53.406;6.214;2023-08-31T05:14:33;4.85;;;1.70;;
62338;SDS011;48368;53.406;6.214;2023-08-31T05:17:05;6.32;;;2.88;;
62338;SDS011;48368;53.406;6.214;2023-08-31T05:19:31;5.25;;;2.05;;
62338;SDS011;48368;53.406;6.214;2023-08-31T05:21:57;5.78;;;1.90;;
62338;SDS011;48368;53.406;6.214;2023-08-31T05:24:23;5.05;;;2.10;;
62338;SDS011;48368;53.406;6.214;2023-08-31T05:26:49;4.03;;;1.77;;
62338;SDS011;48368;53.406;6.214;2023-08-31T05:29:14;7.85;;;3.10;;
62338;SDS011;48368;53.406;6.214;2023-08-31T05:31:40;5.32;;;1.90;;
62338;SDS011;48368;53.406;6.214;2023-08-31T05:34:06;4.93;;;1.95;;
62338;SDS011;48368;53.406;6.214;2023-08-31T05:36:34;5.68;;;2.25;;
62338;SDS011;48368;53.406;6.214;2023-08-31T05:38:59;3.85;;;2.00;;
62338;SDS011;48368;53.406;6.214;2023-08-31T05:41:25;4.78;;;2.90;;
62338;SDS011;48368;53.406;6.214;2023-08-31T05:43:51;4.82;;;1.98;;
62338;SDS011;48368;53.406;6.214;2023-08-31T05:46:17;6.13;;;2.70;;
62338;SDS011;48368;53.406;6.214;2023-08-31T05:48:43;7.60;;;1.92;;
62338;SDS011;48368;53.406;6.214;2023-08-31T05:51:09;5.25;;;2.10;;
62338;SDS011;48368;53.406;6.214;2023-08-31T05:53:34;5.90;;;2.05;;
62338;SDS011;48368;53.406;6.214;2023-08-31T05:56:00;8.07;;;2.30;;
62338;SDS011;48368;53.406;6.214;2023-08-31T05:58:35;8.05;;;2.47;;
62338;SDS011;48368;53.406;6.214;2023-08-31T06:01:02;5.70;;;1.90;;
62338;SDS011;48368;53.406;6.214;2023-08-31T06:03:29;5.75;;;2.80;;
62338;SDS011;48368;53.406;6.214;2023-08-31T06:05:56;6.65;;;2.40;;
62338;SDS011;48368;53.406;6.214;2023-08-31T06:08:22;6.88;;;2.53;;
62338;SDS011;48368;53.406;6.214;2023-08-31T06:10:48;5.90;;;2.35;;
62338;SDS011;48368;53.406;6.214;2023-08-31T06:13:14;6.25;;;2.28;;
62338;SDS011;48368;53.406;6.214;2023-08-31T06:15:39;6.40;;;2.25;;
62338;SDS011;48368;53.406;6.214;2023-08-31T06:18:05;6.57;;;2.40;;
62338;SDS011;48368;53.406;6.214;2023-08-31T06:20:31;5.35;;;2.00;;
62338;SDS011;48368;53.406;6.214;2023-08-31T06:22:57;11.68;;;3.25;;
62338;SDS011;48368;53.406;6.214;2023-08-31T06:25:24;7.43;;;2.47;;
62338;SDS011;48368;53.406;6.214;2023-08-31T06:27:49;6.93;;;1.73;;
62338;SDS011;48368;53.406;6.214;2023-08-31T06:30:16;4.30;;;1.83;;
62338;SDS011;48368;53.406;6.214;2023-08-31T06:32:46;6.68;;;1.85;;
62338;SDS011;48368;53.406;6.214;2023-08-31T06:35:13;4.72;;;1.75;;
62338;SDS011;48368;53.406;6.214;2023-08-31T06:37:40;6.80;;;2.03;;
62338;SDS011;48368;53.406;6.214;2023-08-31T06:40:06;7.15;;;1.90;;
62338;SDS011;48368;53.406;6.214;2023-08-31T06:42:33;6.22;;;1.60;;
62338;SDS011;48368;53.406;6.214;2023-08-31T06:45:06;5.40;;;1.50;;
62338;SDS011;48368;53.406;6.214;2023-08-31T06:47:32;10.05;;;1.55;;
62338;SDS011;48368;53.406;6.214;2023-08-31T06:49:59;6.30;;;2.15;;
62338;SDS011;48368;53.406;6.214;2023-08-31T06:52:25;5.53;;;1.80;;
62338;SDS011;48368;53.406;6.214;2023-08-31T06:54:52;5.45;;;1.92;;
62338;SDS011;48368;53.406;6.214;2023-08-31T06:57:22;7.93;;;1.80;;
62338;SDS011;48368;53.406;6.214;2023-08-31T06:59:48;8.88;;;1.80;;
62338;SDS011;48368;53.406;6.214;2023-08-31T07:02:14;3.60;;;1.80;;
62338;SDS011;48368;53.406;6.214;2023-08-31T07:04:42;7.28;;;1.98;;
62338;SDS011;48368;53.406;6.214;2023-08-31T07:07:09;4.53;;;2.00;;
62338;SDS011;48368;53.406;6.214;2023-08-31T07:09:34;5.35;;;1.90;;
62338;SDS011;48368;53.406;6.214;2023-08-31T07:12:00;4.38;;;1.48;;
62338;SDS011;48368;53.406;6.214;2023-08-31T07:14:29;4.95;;;1.63;;
62338;SDS011;48368;53.406;6.214;2023-08-31T07:16:55;4.50;;;1.77;;
62338;SDS011;48368;53.406;6.214;2023-08-31T07:19:21;8.00;;;1.48;;
62338;SDS011;48368;53.406;6.214;2023-08-31T07:21:46;4.95;;;1.88;;
62338;SDS011;48368;53.406;6.214;2023-08-31T07:24:13;4.90;;;1.30;;
62338;SDS011;48368;53.406;6.214;2023-08-31T07:26:38;5.53;;;1.50;;
62338;SDS011;48368;53.406;6.214;2023-08-31T07:29:04;9.48;;;2.00;;
62338;SDS011;48368;53.406;6.214;2023-08-31T07:31:30;3.70;;;1.23;;
62338;SDS011;48368;53.406;6.214;2023-08-31T07:33:56;5.65;;;1.70;;
62338;SDS011;48368;53.406;6.214;2023-08-31T07:36:24;3.63;;;1.00;;
62338;SDS011;48368;53.406;6.214;2023-08-31T07:38:50;8.57;;;1.20;;
62338;SDS011;48368;53.406;6.214;2023-08-31T07:41:16;7.13;;;1.35;;
62338;SDS011;48368;53.406;6.214;2023-08-31T07:43:41;6.00;;;1.77;;
62338;SDS011;48368;53.406;6.214;2023-08-31T07:46:07;5.88;;;1.67;;
62338;SDS011;48368;53.406;6.214;2023-08-31T07:48:32;4.85;;;1.40;;
62338;SDS011;48368;53.406;6.214;2023-08-31T07:50:58;6.68;;;2.45;;
62338;SDS011;48368;53.406;6.214;2023-08-31T07:53:24;8.90;;;2.50;;
62338;SDS011;48368;53.406;6.214;2023-08-31T07:55:53;5.75;;;1.40;;
62338;SDS011;48368;53.406;6.214;2023-08-31T07:58:20;6.18;;;1.40;;
62338;SDS011;48368;53.406;6.214;2023-08-31T08:00:48;5.80;;;1.40;;
62338;SDS011;48368;53.406;6.214;2023-08-31T08:03:17;3.90;;;1.30;;
62338;SDS011;48368;53.406;6.214;2023-08-31T08:05:42;7.57;;;1.27;;
62338;SDS011;48368;53.406;6.214;2023-08-31T08:08:08;3.20;;;1.90;;
62338;SDS011;48368;53.406;6.214;2023-08-31T08:10:34;3.63;;;0.93;;
62338;SDS011;48368;53.406;6.214;2023-08-31T08:13:00;5.68;;;1.10;;
62338;SDS011;48368;53.406;6.214;2023-08-31T08:15:25;3.28;;;1.00;;
62338;SDS011;48368;53.406;6.214;2023-08-31T08:17:51;2.90;;;1.13;;
62338;SDS011;48368;53.406;6.214;2023-08-31T08:20:18;4.03;;;1.23;;
62338;SDS011;48368;53.406;6.214;2023-08-31T08:22:44;4.60;;;1.23;;
62338;SDS011;48368;53.406;6.214;2023-08-31T08:25:10;4.57;;;1.20;;
62338;SDS011;48368;53.406;6.214;2023-08-31T08:27:36;6.68;;;1.30;;
62338;SDS011;48368;53.406;6.214;2023-08-31T08:30:02;4.90;;;1.40;;
62338;SDS011;48368;53.406;6.214;2023-08-31T08:32:29;7.55;;;1.83;;
62338;SDS011;48368;53.406;6.214;2023-08-31T08:34:55;8.20;;;1.73;;
62338;SDS011;48368;53.406;6.214;2023-08-31T08:37:23;9.38;;;1.70;;
62338;SDS011;48368;53.406;6.214;2023-08-31T08:39:50;7.63;;;2.47;;
62338;SDS011;48368;53.406;6.214;2023-08-31T08:42:17;5.38;;;1.40;;
62338;SDS011;48368;53.406;6.214;2023-08-31T08:44:44;6.35;;;1.80;;
62338;SDS011;48368;53.406;6.214;2023-08-31T08:47:11;5.10;;;1.27;;
62338;SDS011;48368;53.406;6.214;2023-08-31T08:49:37;5.72;;;1.27;;
62338;SDS011;48368;53.406;6.214;2023-08-31T08:52:03;5.53;;;2.28;;
62338;SDS011;48368;53.406;6.214;2023-08-31T08:54:32;7.85;;;2.05;;
62338;SDS011;48368;53.406;6.214;2023-08-31T08:56:59;11.00;;;3.00;;
62338;SDS011;48368;53.406;6.214;2023-08-31T08:59:26;5.57;;;1.55;;
62338;SDS011;48368;53.406;6.214;2023-08-31T09:01:52;6.93;;;1.67;;
62338;SDS011;48368;53.406;6.214;2023-08-31T09:04:18;11.55;;;2.20;;
62338;SDS011;48368;53.406;6.214;2023-08-31T09:06:44;6.50;;;1.60;;
62338;SDS011;48368;53.406;6.214;2023-08-31T09:09:10;6.25;;;1.10;;
62338;SDS011;48368;53.406;6.214;2023-08-31T09:11:36;8.52;;;1.55;;
62338;SDS011;48368;53.406;6.214;2023-08-31T09:14:15;8.10;;;1.83;;
62338;SDS011;48368;53.406;6.214;2023-08-31T09:16:44;9.00;;;1.75;;
62338;SDS011;48368;53.406;6.214;2023-08-31T09:19:20;7.55;;;1.42;;
62338;SDS011;48368;53.406;6.214;2023-08-31T09:21:51;6.93;;;1.60;;
62338;SDS011;48368;53.406;6.214;2023-08-31T09:24:17;7.47;;;2.20;;
62338;SDS011;48368;53.406;6.214;2023-08-31T09:26:47;6.90;;;1.48;;
62338;SDS011;48368;53.406;6.214;2023-08-31T09:29:15;8.88;;;2.25;;
62338;SDS011;48368;53.406;6.214;2023-08-31T09:31:42;9.05;;;2.03;;
62338;SDS011;48368;53.406;6.214;2023-08-31T09:34:12;9.18;;;1.98;;
62338;SDS011;48368;53.406;6.214;2023-08-31T09:36:44;12.27;;;2.35;;
62338;SDS011;48368;53.406;6.214;2023-08-31T09:39:10;13.02;;;2.47;;
62338;SDS011;48368;53.406;6.214;2023-08-31T09:41:53;9.68;;;1.50;;
62338;SDS011;48368;53.406;6.214;2023-08-31T09:44:20;6.60;;;1.70;;
62338;SDS011;48368;53.406;6.214;2023-08-31T09:46:46;6.35;;;1.48;;
62338;SDS011;48368;53.406;6.214;2023-08-31T09:49:13;3.72;;;1.17;;
62338;SDS011;48368;53.406;6.214;2023-08-31T09:51:41;7.90;;;2.10;;
62338;SDS011;48368;53.406;6.214;2023-08-31T09:54:13;6.35;;;1.45;;
62338;SDS011;48368;53.406;6.214;2023-08-31T09:56:41;6.97;;;1.30;;
62338;SDS011;48368;53.406;6.214;2023-08-31T09:59:08;4.45;;;1.25;;
62338;SDS011;48368;53.406;6.214;2023-08-31T10:01:35;7.28;;;1.40;;
62338;SDS011;48368;53.406;6.214;2023-08-31T10:04:02;4.75;;;1.50;;
62338;SDS011;48368;53.406;6.214;2023-08-31T10:06:28;7.05;;;1.38;;
62338;SDS011;48368;53.406;6.214;2023-08-31T10:08:54;4.03;;;1.25;;
62338;SDS011;48368;53.406;6.214;2023-08-31T10:11:20;5.57;;;1.45;;
62338;SDS011;48368;53.406;6.214;2023-08-31T10:13:47;9.20;;;1.80;;
62338;SDS011;48368;53.406;6.214;2023-08-31T10:16:17;7.00;;;1.38;;
62338;SDS011;48368;53.406;6.214;2023-08-31T10:18:45;5.63;;;1.20;;
62338;SDS011;48368;53.406;6.214;2023-08-31T10:21:11;5.90;;;1.60;;
62338;SDS011;48368;53.406;6.214;2023-08-31T10:23:44;5.25;;;1.08;;
62338;SDS011;48368;53.406;6.214;2023-08-31T10:26:26;3.83;;;1.33;;
62338;SDS011;48368;53.406;6.214;2023-08-31T10:28:54;8.68;;;1.13;;
62338;SDS011;48368;53.406;6.214;2023-08-31T10:31:21;6.95;;;1.30;;
62338;SDS011;48368;53.406;6.214;2023-08-31T10:34:04;3.90;;;1.27;;
62338;SDS011;48368;53.406;6.214;2023-08-31T10:39:18;6.22;;;1.40;;
62338;SDS011;48368;53.406;6.214;2023-08-31T10:41:54;7.05;;;1.30;;
62338;SDS011;48368;53.406;6.214;2023-08-31T10:44:21;8.57;;;1.70;;
62338;SDS011;48368;53.406;6.214;2023-08-31T10:46:49;7.18;;;1.92;;
62338;SDS011;48368;53.406;6.214;2023-08-31T10:49:16;6.38;;;1.52;;
62338;SDS011;48368;53.406;6.214;2023-08-31T10:56:52;10.45;;;1.90;;
62338;SDS011;48368;53.406;6.214;2023-08-31T10:59:43;9.23;;;1.85;;
62338;SDS011;48368;53.406;6.214;2023-08-31T11:02:55;9.68;;;2.20;;
62338;SDS011;48368;53.406;6.214;2023-08-31T11:07:35;4.45;;;1.58;;
62338;SDS011;48368;53.406;6.214;2023-08-31T11:10:12;4.43;;;1.20;;
62338;SDS011;48368;53.406;6.214;2023-08-31T11:12:38;10.27;;;1.88;;
62338;SDS011;48368;53.406;6.214;2023-08-31T11:15:06;8.95;;;1.90;;
62338;SDS011;48368;53.406;6.214;2023-08-31T11:17:32;10.60;;;2.00;;
62338;SDS011;48368;53.406;6.214;2023-08-31T11:19:59;7.03;;;1.52;;
62338;SDS011;48368;53.406;6.214;2023-08-31T11:22:25;6.43;;;1.65;;
62338;SDS011;48368;53.406;6.214;2023-08-31T11:24:52;10.52;;;1.48;;
62338;SDS011;48368;53.406;6.214;2023-08-31T11:27:21;5.18;;;1.60;;
62338;SDS011;48368;53.406;6.214;2023-08-31T11:29:47;3.28;;;0.90;;
62338;SDS011;48368;53.406;6.214;2023-08-31T11:32:13;5.70;;;1.42;;
62338;SDS011;48368;53.406;6.214;2023-08-31T11:34:45;8.48;;;1.55;;
62338;SDS011;48368;53.406;6.214;2023-08-31T11:37:12;7.50;;;1.43;;
62338;SDS011;48368;53.406;6.214;2023-08-31T11:39:42;6.53;;;1.40;;
62338;SDS011;48368;53.406;6.214;2023-08-31T11:42:17;8.20;;;2.92;;
62338;SDS011;48368;53.406;6.214;2023-08-31T11:44:48;10.32;;;2.67;;
62338;SDS011;48368;53.406;6.214;2023-08-31T11:47:16;8.82;;;1.83;;
62338;SDS011;48368;53.406;6.214;2023-08-31T11:49:48;12.90;;;2.20;;
62338;SDS011;48368;53.406;6.214;2023-08-31T11:52:14;12.23;;;2.22;;
62338;SDS011;48368;53.406;6.214;2023-08-31T11:54:41;6.07;;;1.50;;
62338;SDS011;48368;53.406;6.214;2023-08-31T11:57:07;10.43;;;1.70;;
62338;SDS011;48368;53.406;6.214;2023-08-31T11:59:35;6.82;;;1.75;;
62338;SDS011;48368;53.406;6.214;2023-08-31T12:02:02;6.45;;;1.60;;
62338;SDS011;48368;53.406;6.214;2023-08-31T12:04:32;7.53;;;1.60;;
62338;SDS011;48368;53.406;6.214;2023-08-31T12:07:01;6.32;;;1.80;;
62338;SDS011;48368;53.406;6.214;2023-08-31T12:09:31;8.55;;;2.75;;
62338;SDS011;48368;53.406;6.214;2023-08-31T12:11:57;5.97;;;1.33;;
62338;SDS011;48368;53.406;6.214;2023-08-31T12:14:25;7.22;;;1.50;;
62338;SDS011;48368;53.406;6.214;2023-08-31T12:17:00;5.95;;;1.40;;
62338;SDS011;48368;53.406;6.214;2023-08-31T12:19:28;3.83;;;1.40;;
62338;SDS011;48368;53.406;6.214;2023-08-31T12:21:55;6.72;;;2.15;;
62338;SDS011;48368;53.406;6.214;2023-08-31T12:24:21;5.47;;;1.40;;
62338;SDS011;48368;53.406;6.214;2023-08-31T12:26:48;8.43;;;1.70;;
62338;SDS011;48368;53.406;6.214;2023-08-31T12:29:14;7.97;;;2.03;;
62338;SDS011;48368;53.406;6.214;2023-08-31T12:31:40;7.18;;;1.35;;
62338;SDS011;48368;53.406;6.214;2023-08-31T12:34:06;8.23;;;2.17;;
62338;SDS011;48368;53.406;6.214;2023-08-31T12:36:32;8.15;;;1.42;;
62338;SDS011;48368;53.406;6.214;2023-08-31T12:38:58;8.70;;;2.47;;
62338;SDS011;48368;53.406;6.214;2023-08-31T12:41:27;8.77;;;1.50;;
62338;SDS011;48368;53.406;6.214;2023-08-31T12:43:53;4.85;;;0.98;;
62338;SDS011;48368;53.406;6.214;2023-08-31T12:46:19;10.27;;;1.38;;
62338;SDS011;48368;53.406;6.214;2023-08-31T12:48:45;7.93;;;1.60;;
62338;SDS011;48368;53.406;6.214;2023-08-31T12:51:10;4.60;;;1.10;;
62338;SDS011;48368;53.406;6.214;2023-08-31T12:53:39;4.65;;;1.30;;
62338;SDS011;48368;53.406;6.214;2023-08-31T12:56:05;9.25;;;1.40;;
62338;SDS011;48368;53.406;6.214;2023-08-31T12:58:31;8.40;;;1.35;;
62338;SDS011;48368;53.406;6.214;2023-08-31T13:00:58;5.45;;;1.33;;
62338;SDS011;48368;53.406;6.214;2023-08-31T13:03:24;4.30;;;1.00;;
62338;SDS011;48368;53.406;6.214;2023-08-31T13:05:50;5.45;;;1.10;;
62338;SDS011;48368;53.406;6.214;2023-08-31T13:08:16;7.07;;;1.17;;
62338;SDS011;48368;53.406;6.214;2023-08-31T13:10:41;4.15;;;1.10;;
62338;SDS011;48368;53.406;6.214;2023-08-31T13:13:07;4.72;;;1.08;;
62338;SDS011;48368;53.406;6.214;2023-08-31T13:15:33;6.97;;;1.70;;
62338;SDS011;48368;53.406;6.214;2023-08-31T13:17:59;9.30;;;1.55;;
62338;SDS011;48368;53.406;6.214;2023-08-31T13:20:25;5.18;;;1.20;;
62338;SDS011;48368;53.406;6.214;2023-08-31T13:22:52;8.73;;;1.13;;
62338;SDS011;48368;53.406;6.214;2023-08-31T13:25:18;5.63;;;1.30;;
62338;SDS011;48368;53.406;6.214;2023-08-31T13:27:43;4.13;;;1.02;;
62338;SDS011;48368;53.406;6.214;2023-08-31T13:30:10;6.45;;;1.45;;
62338;SDS011;48368;53.406;6.214;2023-08-31T13:32:37;7.90;;;1.40;;
62338;SDS011;48368;53.406;6.214;2023-08-31T13:35:03;6.50;;;1.30;;
62338;SDS011;48368;53.406;6.214;2023-08-31T13:37:33;6.95;;;1.20;;
62338;SDS011;48368;53.406;6.214;2023-08-31T13:39:59;4.47;;;1.10;;
62338;SDS011;48368;53.406;6.214;2023-08-31T13:42:25;4.30;;;2.22;;
62338;SDS011;48368;53.406;6.214;2023-08-31T13:44:51;4.82;;;1.40;;
62338;SDS011;48368;53.406;6.214;2023-08-31T13:47:17;7.20;;;1.52;;
62338;SDS011;48368;53.406;6.214;2023-08-31T13:49:42;6.47;;;1.55;;
62338;SDS011;48368;53.406;6.214;2023-08-31T13:52:08;7.95;;;1.08;;
62338;SDS011;48368;53.406;6.214;2023-08-31T13:57:06;5.80;;;1.33;;
62338;SDS011;48368;53.406;6.214;2023-08-31T13:59:35;3.40;;;1.08;;
62338;SDS011;48368;53.406;6.214;2023-08-31T14:02:00;5.97;;;1.08;;
62338;SDS011;48368;53.406;6.214;2023-08-31T14:04:26;6.72;;;1.30;;
62338;SDS011;48368;53.406;6.214;2023-08-31T14:06:51;4.80;;;1.00;;
62338;SDS011;48368;53.406;6.214;2023-08-31T14:09:18;5.85;;;1.10;;
62338;SDS011;48368;53.406;6.214;2023-08-31T14:11:43;10.18;;;1.58;;
62338;SDS011;48368;53.406;6.214;2023-08-31T14:14:11;4.93;;;1.02;;
62338;SDS011;48368;53.406;6.214;2023-08-31T14:16:37;5.32;;;1.45;;
62338;SDS011;48368;53.406;6.214;2023-08-31T14:19:06;9.80;;;1.40;;
62338;SDS011;48368;53.406;6.214;2023-08-31T14:21:31;4.97;;;1.40;;
62338;SDS011;48368;53.406;6.214;2023-08-31T14:23:57;5.30;;;1.30;;
62338;SDS011;48368;53.406;6.214;2023-08-31T14:26:23;6.90;;;1.40;;
62338;SDS011;48368;53.406;6.214;2023-08-31T14:28:52;7.43;;;1.05;;
62338;SDS011;48368;53.406;6.214;2023-08-31T14:31:18;6.85;;;1.40;;
62338;SDS011;48368;53.406;6.214;2023-08-31T14:33:44;6.20;;;1.40;;
62338;SDS011;48368;53.406;6.214;2023-08-31T14:36:11;3.80;;;1.00;;
62338;SDS011;48368;53.406;6.214;2023-08-31T14:38:39;6.88;;;1.50;;
62338;SDS011;48368;53.406;6.214;2023-08-31T14:41:04;8.50;;;2.22;;
62338;SDS011;48368;53.406;6.214;2023-08-31T14:43:31;4.13;;;1.30;;
62338;SDS011;48368;53.406;6.214;2023-08-31T14:45:57;4.10;;;1.20;;
62338;SDS011;48368;53.406;6.214;2023-08-31T14:48:25;5.00;;;1.20;;
62338;SDS011;48368;53.406;6.214;2023-08-31T14:50:51;8.27;;;2.15;;
62338;SDS011;48368;53.406;6.214;2023-08-31T14:53:17;8.98;;;1.95;;
62338;SDS011;48368;53.406;6.214;2023-08-31T14:55:47;7.80;;;1.98;;
62338;SDS011;48368;53.406;6.214;2023-08-31T14:58:14;8.93;;;1.80;;
62338;SDS011;48368;53.406;6.214;2023-08-31T15:00:41;9.88;;;1.42;;
62338;SDS011;48368;53.406;6.214;2023-08-31T15:03:07;9.23;;;2.00;;
62338;SDS011;48368;53.406;6.214;2023-08-31T15:05:32;5.07;;;1.08;;
62338;SDS011;48368;53.406;6.214;2023-08-31T15:08:04;7.65;;;1.50;;
62338;SDS011;48368;53.406;6.214;2023-08-31T15:10:30;4.03;;;1.08;;